KFPK

Fitch H Beach Airport

Charlotte, Michigan, USA
METAR KFPK 162215Z AUTO 03005KT 10SM CLR M04/M08 A3024 RMK AO2 T10381085
Observed Flight Rules
Jan-16 @ 22:15 UTC (15 minutes ago) Visual Flight Rules
Wind Visibility Clouds
30° at 5 knots 10 miles
  • Clear skies
Temperatures Readings
Current -4°C / 25°F
Dewpoint -9°C / 16°F
Humidity 69%
Altimeter 30.24" Hg
Pressure 1024.02 hPa
Elevation 272
METAR KFPK 162215Z AUTO 03005KT 10SM CLR M04/M08 A3024 RMK AO2 T10381085
Observed Flight Rules
Jan-16 @ 22:15 UTC
(15 minutes ago)
VFR
Wind Visibility
30° at 5 knots 10 miles
Clouds
  • Clear skies
Temperature Dewpoint
-4°C / 25°F -9°C / 16°F
Humidity Altimeter Pressure
69% 30.24" Hg 1024.02 hPa